EHC04 EHLE-EHLE
Flight info
| Callsign | EHC04 |
|---|---|
| Flight time | 0h 3m |
| Altitude | 1000 |
| Route | AMSTERDAM BREDA EHSE BREDA GRONINGEN EHLE |
| Aircraft | EC35/L-V/N |
Departure
| Time | 2026-04-28 17:36 |
|---|---|
| Airport | Lelystad Airport (EHLE) |
Arrival
| Time | 2026-04-28 17:40 |
|---|---|
| Airport | Lelystad Airport (EHLE) |
| Time | Latitude | Longitude | Altitude | Speed | Heading |
|---|---|---|---|---|---|
| 2026-04-28 17:16 | 52.45308 | 5.51914 | -7 ft | 0 kts | 58° |
| 2026-04-28 17:34 | 52.45323 | 5.51919 | 7 ft | 8 kts | 30° |
| 2026-04-28 17:34 | 52.45405 | 5.51921 | 4 ft | 9 kts | 323° |
| 2026-04-28 17:34 | 52.45419 | 5.51903 | -2 ft | 1 kts | 322° |
| 2026-04-28 17:35 | 52.45417 | 5.51908 | -3 ft | 0 kts | 320° |
| 2026-04-28 17:35 | 52.45421 | 5.51903 | -3 ft | 1 kts | 321° |
| 2026-04-28 17:35 | 52.45426 | 5.51893 | -2 ft | 6 kts | 316° |
| 2026-04-28 17:35 | 52.45485 | 5.51781 | 23 ft | 19 kts | 262° |
| 2026-04-28 17:36 | 52.45231 | 5.51285 | 118 ft | 80 kts | 226° |
| 2026-04-28 17:36 | 52.44804 | 5.50515 | 253 ft | 102 kts | 221° |
| 2026-04-28 17:36 | 52.44375 | 5.49654 | 627 ft | 87 kts | 231° |
| 2026-04-28 17:36 | 52.44053 | 5.48824 | 897 ft | 96 kts | 232° |
| 2026-04-28 17:37 | 52.43621 | 5.47790 | 904 ft | 119 kts | 228° |
| 2026-04-28 17:37 | 52.43102 | 5.46643 | 900 ft | 134 kts | 226° |
| 2026-04-28 17:37 | 52.42505 | 5.45387 | 902 ft | 144 kts | 224° |
| 2026-04-28 17:37 | 52.41857 | 5.44072 | 903 ft | 151 kts | 224° |
| 2026-04-28 17:38 | 52.41240 | 5.42625 | 910 ft | 156 kts | 229° |
| 2026-04-28 17:38 | 52.40625 | 5.41190 | 910 ft | 156 kts | 227° |
| 2026-04-28 17:38 | 52.40006 | 5.39713 | 910 ft | 157 kts | 230° |
| 2026-04-28 17:38 | 52.39473 | 5.38146 | 909 ft | 158 kts | 236° |
| 2026-04-28 17:39 | 52.39097 | 5.36509 | 883 ft | 162 kts | 250° |
| 2026-04-28 17:39 | 52.39047 | 5.34809 | 892 ft | 164 kts | 265° |
| 2026-04-28 17:39 | 52.39346 | 5.32729 | 344 ft | 104 kts | 337° |
| 2026-04-28 17:40 | 52.39662 | 5.32391 | 111 ft | 45 kts | 340° |
| 2026-04-28 17:40 | 52.39723 | 5.32067 | 423 ft | 50 kts | 265° |
| 2026-04-28 17:40 | 52.39690 | 5.31942 | 484 ft | 62 kts | 246° |
| 2026-04-28 17:40 | 52.39541 | 5.31754 | 646 ft | 8 kts | 264° |
| 2026-04-28 17:41 | 52.39544 | 5.31563 | 1070 ft | 31 kts | 257° |
| 2026-04-28 17:41 | 52.39555 | 5.31395 | 1180 ft | 44 kts | 264° |
| 2026-04-28 17:41 | 52.39614 | 5.31127 | 1275 ft | 60 kts | 281° |
| 2026-04-28 17:41 | 52.39865 | 5.30478 | 1099 ft | 104 kts | 297° |
| 2026-04-28 17:42 | 52.39916 | 5.30355 | 1074 ft | 106 kts | 295° |
| 2026-04-28 17:42 | 52.39922 | 5.30338 | 1074 ft | 107 kts | 296° |
| 2026-04-28 17:42 | 52.40261 | 5.29512 | 1387 ft | 53 kts | 304° |
| 2026-04-28 17:42 | 52.40558 | 5.29223 | 1520 ft | 59 kts | 328° |
| 2026-04-28 17:43 | 52.40824 | 5.28849 | 1551 ft | 48 kts | 280° |
| 2026-04-28 17:43 | 52.40803 | 5.28450 | 1315 ft | 45 kts | 236° |
| 2026-04-28 17:43 | 52.40569 | 5.27921 | 1087 ft | 73 kts | 228° |
| 2026-04-28 17:43 | 52.40347 | 5.27002 | 976 ft | 103 kts | 257° |
| 2026-04-28 17:44 | 52.40313 | 5.25696 | 949 ft | 126 kts | 264° |
| 2026-04-28 17:44 | 52.40235 | 5.24177 | 935 ft | 140 kts | 259° |
| 2026-04-28 17:44 | 52.40146 | 5.22537 | 937 ft | 145 kts | 260° |
| 2026-04-28 17:44 | 52.40084 | 5.20906 | 931 ft | 146 kts | 261° |
| 2026-04-28 17:45 | 52.40068 | 5.19464 | 932 ft | 147 kts | 264° |
| 2026-04-28 17:45 | 52.40069 | 5.19297 | 931 ft | 146 kts | 265° |
| 2026-04-28 17:45 | 52.40121 | 5.18094 | 997 ft | 142 kts | 270° |
| 2026-04-28 17:45 | 52.40255 | 5.16441 | 970 ft | 147 kts | 272° |
| 2026-04-28 17:46 | 52.40405 | 5.14774 | 946 ft | 148 kts | 272° |
| 2026-04-28 17:46 | 52.40554 | 5.13098 | 939 ft | 148 kts | 272° |
| 2026-04-28 17:46 | 52.40701 | 5.11447 | 935 ft | 148 kts | 272° |
| 2026-04-28 17:46 | 52.40778 | 5.09762 | 933 ft | 147 kts | 263° |
| 2026-04-28 17:47 | 52.40628 | 5.08110 | 932 ft | 147 kts | 250° |
| 2026-04-28 17:47 | 52.40267 | 5.06545 | 930 ft | 147 kts | 241° |
| 2026-04-28 17:47 | 52.39854 | 5.05029 | 930 ft | 147 kts | 240° |
| 2026-04-28 17:47 | 52.39533 | 5.04028 | 930 ft | 147 kts | 235° |
| 2026-04-28 17:48 | 52.38761 | 5.02202 | 930 ft | 147 kts | 226° |
| 2026-04-28 17:48 | 52.38146 | 5.00866 | 950 ft | 146 kts | 229° |
| 2026-04-28 17:48 | 52.37591 | 4.99494 | 974 ft | 146 kts | 233° |
| 2026-04-28 17:48 | 52.37124 | 4.97997 | 987 ft | 147 kts | 243° |
| 2026-04-28 17:49 | 52.36823 | 4.96400 | 994 ft | 147 kts | 249° |
| 2026-04-28 17:49 | 52.36503 | 4.94828 | 997 ft | 147 kts | 244° |
| 2026-04-28 17:49 | 52.36109 | 4.93281 | 999 ft | 147 kts | 240° |
| 2026-04-28 17:49 | 52.35711 | 4.91730 | 997 ft | 149 kts | 246° |
| 2026-04-28 17:50 | 52.35446 | 4.90079 | 999 ft | 150 kts | 251° |
| 2026-04-28 17:50 | 52.35182 | 4.88541 | 1166 ft | 123 kts | 245° |
| 2026-04-28 17:50 | 52.34902 | 4.87329 | 1069 ft | 111 kts | 243° |
| 2026-04-28 17:50 | 52.34647 | 4.86274 | 1099 ft | 81 kts | 240° |
| 2026-04-28 17:51 | 52.34419 | 4.85573 | 904 ft | 78 kts | 236° |
| 2026-04-28 17:51 | 52.34216 | 4.84837 | 978 ft | 63 kts | 241° |
| 2026-04-28 17:51 | 52.33994 | 4.84435 | 784 ft | 47 kts | 176° |
| 2026-04-28 17:51 | 52.33815 | 4.84726 | 429 ft | 37 kts | 89° |
| 2026-04-28 17:52 | 52.33998 | 4.85032 | 360 ft | 37 kts | 40° |
| 2026-04-28 17:52 | 52.34120 | 4.85178 | 377 ft | 26 kts | 84° |
| 2026-04-28 17:52 | 52.34326 | 4.85146 | 368 ft | 19 kts | 40° |
| 2026-04-28 17:53 | 52.34333 | 4.85145 | 364 ft | 15 kts | 44° |
| 2026-04-28 17:53 | 52.34361 | 4.85134 | 355 ft | 14 kts | 84° |
| 2026-04-28 17:53 | 52.34377 | 4.85223 | 24 ft | 15 kts | 117° |
| 2026-04-28 17:53 | 52.34361 | 4.85334 | 20 ft | 4 kts | 77° |
| 2026-04-28 17:54 | 52.34359 | 4.85342 | 9 ft | 0 kts | 66° |
| 2026-04-28 17:54 | 52.34230 | 4.84983 | 4 ft | 0 kts | 65° |
| 2026-04-28 17:54 | 52.34229 | 4.84985 | 4 ft | 0 kts | 63° |
| 2026-04-28 17:55 | 52.34227 | 4.84987 | 8 ft | 1 kts | 50° |
| 2026-04-28 17:55 | 52.34227 | 4.84988 | 4 ft | 0 kts | 43° |
| 2026-04-28 17:56 | 52.34217 | 4.85052 | 5 ft | 0 kts | 44° |
| 2026-04-28 18:05 | 52.34222 | 4.85049 | 32 ft | 2 kts | 61° |
| 2026-04-28 18:05 | 52.34232 | 4.85072 | 145 ft | 4 kts | 102° |
| 2026-04-28 18:06 | 52.34225 | 4.85141 | 175 ft | 9 kts | 94° |
| 2026-04-28 18:06 | 52.34226 | 4.85183 | 243 ft | 17 kts | 78° |
| 2026-04-28 18:06 | 52.34372 | 4.85577 | 307 ft | 72 kts | 4° |
| 2026-04-28 18:06 | 52.34671 | 4.84877 | 304 ft | 102 kts | 250° |
| 2026-04-28 18:07 | 52.34179 | 4.84065 | 431 ft | 105 kts | 207° |
| 2026-04-28 18:07 | 52.33557 | 4.83333 | 558 ft | 113 kts | 210° |
| 2026-04-28 18:07 | 52.33185 | 4.82242 | 582 ft | 113 kts | 248° |
| 2026-04-28 18:07 | 52.32655 | 4.81521 | 821 ft | 96 kts | 200° |
| 2026-04-28 18:08 | 52.32124 | 4.80910 | 802 ft | 90 kts | 213° |
| 2026-04-28 18:08 | 52.31708 | 4.80164 | 695 ft | 93 kts | 231° |
| 2026-04-28 18:08 | 52.31397 | 4.79234 | 572 ft | 93 kts | 239° |
| 2026-04-28 18:08 | 52.31224 | 4.78344 | 579 ft | 78 kts | 252° |
| 2026-04-28 18:09 | 52.31102 | 4.77508 | 349 ft | 71 kts | 245° |
| 2026-04-28 18:09 | 52.30971 | 4.76817 | 311 ft | 57 kts | 249° |
| 2026-04-28 18:09 | 52.30764 | 4.76153 | 223 ft | 65 kts | 197° |
| 2026-04-28 18:09 | 52.30809 | 4.76484 | 296 ft | 57 kts | 336° |
| 2026-04-28 18:10 | 52.30755 | 4.76124 | 360 ft | 39 kts | 159° |
| 2026-04-28 18:10 | 52.30720 | 4.76308 | 207 ft | 2 kts | 17° |
| 2026-04-28 18:10 | 52.30787 | 4.76252 | 240 ft | 22 kts | 268° |
| 2026-04-28 18:10 | 52.30703 | 4.76277 | 236 ft | 34 kts | 52° |
| 2026-04-28 18:11 | 52.30809 | 4.76133 | 245 ft | 38 kts | 198° |
| 2026-04-28 18:11 | 52.30839 | 4.76349 | 269 ft | 44 kts | 327° |
| 2026-04-28 18:11 | 52.30696 | 4.76171 | 283 ft | 56 kts | 124° |
| 2026-04-28 18:11 | 52.30909 | 4.76476 | 332 ft | 60 kts | 315° |
| 2026-04-28 18:12 | 52.30899 | 4.76120 | 388 ft | 54 kts | 203° |
| 2026-04-28 18:12 | 52.30578 | 4.76019 | 648 ft | 26 kts | 116° |
| 2026-04-28 18:12 | 52.30731 | 4.76203 | 492 ft | 26 kts | 24° |
| 2026-04-28 18:12 | 52.30798 | 4.76148 | 370 ft | 18 kts | 35° |
| 2026-04-28 18:13 | 52.30667 | 4.75854 | 372 ft | 45 kts | 52° |
| 2026-04-28 18:13 | 52.30656 | 4.75652 | 346 ft | 5 kts | 73° |
| 2026-04-28 18:13 | 52.30633 | 4.75634 | 21 ft | 3 kts | 92° |
| 2026-04-28 18:13 | 52.30582 | 4.75570 | 295 ft | 14 kts | 109° |
| 2026-04-28 18:14 | 52.30468 | 4.75522 | 638 ft | 20 kts | 102° |
| 2026-04-28 18:14 | 52.30299 | 4.75688 | 890 ft | 24 kts | 101° |
| 2026-04-28 18:14 | 52.30186 | 4.75710 | 876 ft | 20 kts | 120° |
| 2026-04-28 18:14 | 52.30046 | 4.75885 | 848 ft | 36 kts | 74° |
| 2026-04-28 18:15 | 52.30237 | 4.76436 | 828 ft | 75 kts | 46° |
| 2026-04-28 18:15 | 52.30474 | 4.77098 | 823 ft | 95 kts | 63° |
| 2026-04-28 18:15 | 52.30560 | 4.77492 | 824 ft | 99 kts | 65° |
| 2026-04-28 18:15 | 52.30688 | 4.78012 | 827 ft | 106 kts | 61° |
| 2026-04-28 18:16 | 52.30562 | 4.79345 | 582 ft | 144 kts | 121° |
| 2026-04-28 18:16 | 52.29865 | 4.80447 | 521 ft | 122 kts | 137° |
| 2026-04-28 18:16 | 52.29211 | 4.81208 | 529 ft | 118 kts | 133° |
| 2026-04-28 18:16 | 52.28520 | 4.81898 | 530 ft | 104 kts | 160° |
| 2026-04-28 18:17 | 52.27792 | 4.81757 | 452 ft | 113 kts | 200° |
| 2026-04-28 18:17 | 52.27147 | 4.80985 | 651 ft | 115 kts | 211° |
| 2026-04-28 18:17 | 52.26458 | 4.80373 | 844 ft | 113 kts | 197° |
| 2026-04-28 18:17 | 52.25687 | 4.79883 | 930 ft | 128 kts | 194° |
| 2026-04-28 18:18 | 52.24793 | 4.79384 | 990 ft | 140 kts | 193° |
| 2026-04-28 18:18 | 52.23982 | 4.78982 | 1023 ft | 143 kts | 191° |
| 2026-04-28 18:18 | 52.23137 | 4.78603 | 1025 ft | 145 kts | 189° |
| 2026-04-28 18:18 | 52.22734 | 4.78432 | 1035 ft | 144 kts | 189° |
| 2026-04-28 18:19 | 52.21855 | 4.78073 | 1035 ft | 144 kts | 189° |
| 2026-04-28 18:19 | 52.21082 | 4.77775 | 1028 ft | 145 kts | 188° |
| 2026-04-28 18:19 | 52.20408 | 4.77517 | 1030 ft | 145 kts | 187° |
| 2026-04-28 18:19 | 52.19590 | 4.77203 | 1007 ft | 145 kts | 187° |
| 2026-04-28 18:20 | 52.18707 | 4.76886 | 1010 ft | 142 kts | 187° |
| 2026-04-28 18:20 | 52.18019 | 4.76638 | 885 ft | 147 kts | 187° |
| 2026-04-28 18:20 | 52.17062 | 4.76293 | 948 ft | 143 kts | 187° |
| 2026-04-28 18:20 | 52.16162 | 4.75965 | 1030 ft | 138 kts | 186° |
| 2026-04-28 18:21 | 52.15261 | 4.75650 | 1032 ft | 138 kts | 187° |
| 2026-04-28 18:21 | 52.14313 | 4.75321 | 1030 ft | 141 kts | 186° |
| 2026-04-28 18:21 | 52.13335 | 4.74981 | 1029 ft | 144 kts | 186° |
| 2026-04-28 18:21 | 52.12360 | 4.74643 | 1028 ft | 145 kts | 186° |
| 2026-04-28 18:22 | 52.11390 | 4.74305 | 1030 ft | 145 kts | 186° |
| 2026-04-28 18:22 | 52.10399 | 4.73960 | 1029 ft | 145 kts | 186° |
| 2026-04-28 18:22 | 52.09409 | 4.73617 | 1031 ft | 146 kts | 186° |
| 2026-04-28 18:22 | 52.08408 | 4.73271 | 1071 ft | 147 kts | 185° |
| 2026-04-28 18:23 | 52.07398 | 4.72911 | 1188 ft | 149 kts | 184° |
| 2026-04-28 18:23 | 52.06447 | 4.72579 | 1286 ft | 129 kts | 182° |
| 2026-04-28 18:23 | 52.05557 | 4.72282 | 1243 ft | 139 kts | 183° |
| 2026-04-28 18:23 | 52.04591 | 4.71960 | 1265 ft | 142 kts | 182° |
| 2026-04-28 18:24 | 52.03612 | 4.71634 | 1266 ft | 143 kts | 183° |
| 2026-04-28 18:24 | 52.02960 | 4.71413 | 1263 ft | 145 kts | 183° |
| 2026-04-28 18:24 | 52.01650 | 4.70968 | 1266 ft | 142 kts | 183° |
| 2026-04-28 18:24 | 52.00683 | 4.70634 | 1252 ft | 143 kts | 183° |
| 2026-04-28 18:25 | 51.99698 | 4.70294 | 1274 ft | 145 kts | 183° |
| 2026-04-28 18:25 | 51.98734 | 4.69963 | 1257 ft | 142 kts | 184° |
| 2026-04-28 18:25 | 51.97757 | 4.69620 | 1251 ft | 145 kts | 184° |
| 2026-04-28 18:26 | 51.95812 | 4.68945 | 1267 ft | 143 kts | 183° |
| 2026-04-28 18:26 | 51.94825 | 4.68603 | 1262 ft | 147 kts | 184° |
| 2026-04-28 18:26 | 51.93823 | 4.68254 | 1272 ft | 145 kts | 183° |
| 2026-04-28 18:26 | 51.92881 | 4.67930 | 1256 ft | 143 kts | 184° |
| 2026-04-28 18:27 | 51.91898 | 4.67589 | 1257 ft | 145 kts | 184° |
| 2026-04-28 18:27 | 51.90911 | 4.67249 | 1263 ft | 144 kts | 183° |
| 2026-04-28 18:27 | 51.89932 | 4.66891 | 1262 ft | 144 kts | 183° |
| 2026-04-28 18:27 | 51.88950 | 4.66637 | 1273 ft | 142 kts | 178° |
| 2026-04-28 18:28 | 51.87972 | 4.66437 | 1265 ft | 144 kts | 177° |
| 2026-04-28 18:28 | 51.86976 | 4.66232 | 1270 ft | 142 kts | 178° |
| 2026-04-28 18:28 | 51.86004 | 4.66106 | 1258 ft | 139 kts | 171° |
| 2026-04-28 18:28 | 51.85019 | 4.66119 | 1264 ft | 143 kts | 169° |
| 2026-04-28 18:29 | 51.84044 | 4.66154 | 1262 ft | 142 kts | 169° |
| 2026-04-28 18:29 | 51.83062 | 4.66188 | 1251 ft | 141 kts | 169° |
| 2026-04-28 18:29 | 51.82073 | 4.66216 | 1257 ft | 142 kts | 169° |
| 2026-04-28 18:29 | 51.81081 | 4.66244 | 1261 ft | 142 kts | 169° |
| 2026-04-28 18:30 | 51.80097 | 4.66266 | 1257 ft | 142 kts | 169° |
| 2026-04-28 18:30 | 51.79425 | 4.66277 | 1252 ft | 143 kts | 169° |
| 2026-04-28 18:30 | 51.78100 | 4.66312 | 1258 ft | 142 kts | 168° |
| 2026-04-28 18:30 | 51.77117 | 4.66323 | 1251 ft | 142 kts | 169° |
| 2026-04-28 18:31 | 51.76115 | 4.66329 | 1242 ft | 144 kts | 170° |
| 2026-04-28 18:31 | 51.75120 | 4.66358 | 1250 ft | 144 kts | 169° |
| 2026-04-28 18:31 | 51.74121 | 4.66383 | 1251 ft | 142 kts | 168° |
| 2026-04-28 18:31 | 51.73128 | 4.66387 | 1241 ft | 143 kts | 169° |
| 2026-04-28 18:32 | 51.72140 | 4.66397 | 1243 ft | 144 kts | 169° |
| 2026-04-28 18:32 | 51.71138 | 4.66423 | 1252 ft | 143 kts | 169° |
| 2026-04-28 18:32 | 51.70136 | 4.66459 | 1239 ft | 145 kts | 168° |
| 2026-04-28 18:32 | 51.69126 | 4.66560 | 1240 ft | 145 kts | 167° |
| 2026-04-28 18:33 | 51.68135 | 4.66671 | 1243 ft | 142 kts | 166° |
| 2026-04-28 18:33 | 51.67148 | 4.66781 | 1234 ft | 143 kts | 166° |
| 2026-04-28 18:33 | 51.66146 | 4.66891 | 1225 ft | 144 kts | 166° |
| 2026-04-28 18:33 | 51.65133 | 4.66998 | 1228 ft | 144 kts | 166° |
| 2026-04-28 18:34 | 51.64160 | 4.67185 | 1219 ft | 141 kts | 161° |
| 2026-04-28 18:34 | 51.63187 | 4.67455 | 1228 ft | 142 kts | 159° |
| 2026-04-28 18:34 | 51.62230 | 4.67771 | 1232 ft | 138 kts | 156° |
| 2026-04-28 18:34 | 51.61302 | 4.68124 | 1232 ft | 139 kts | 155° |
| 2026-04-28 18:35 | 51.60357 | 4.68504 | 1229 ft | 139 kts | 155° |
| 2026-04-28 18:35 | 51.59405 | 4.68898 | 1223 ft | 141 kts | 155° |
| 2026-04-28 18:35 | 51.58604 | 4.69220 | 1225 ft | 141 kts | 155° |
| 2026-04-28 18:35 | 51.57756 | 4.69845 | 1223 ft | 128 kts | 121° |
| 2026-04-28 18:36 | 51.57752 | 4.71145 | 1215 ft | 123 kts | 59° |
| 2026-04-28 18:36 | 51.58008 | 4.72480 | 1262 ft | 124 kts | 62° |
| 2026-04-28 18:36 | 51.58221 | 4.73828 | 1094 ft | 126 kts | 71° |
| 2026-04-28 18:36 | 51.58320 | 4.75206 | 832 ft | 123 kts | 75° |
| 2026-04-28 18:37 | 51.58399 | 4.76553 | 737 ft | 120 kts | 75° |
| 2026-04-28 18:37 | 51.58420 | 4.77909 | 705 ft | 122 kts | 83° |
| 2026-04-28 18:37 | 51.58287 | 4.79255 | 667 ft | 131 kts | 105° |
| 2026-04-28 18:37 | 51.57831 | 4.80463 | 927 ft | 95 kts | 107° |
| 2026-04-28 18:38 | 51.57663 | 4.81331 | 970 ft | 77 kts | 81° |
| 2026-04-28 18:38 | 51.57657 | 4.81715 | 836 ft | 11 kts | 78° |
| 2026-04-28 18:38 | 51.57669 | 4.81869 | 616 ft | 28 kts | 30° |
| 2026-04-28 18:38 | 51.57877 | 4.81922 | 125 ft | 9 kts | 334° |
| 2026-04-28 18:39 | 51.57917 | 4.81910 | 21 ft | 5 kts | 321° |
| 2026-04-28 18:39 | 51.57924 | 4.81907 | 18 ft | 0 kts | 322° |
| 2026-04-28 18:39 | 51.57927 | 4.81900 | 24 ft | 7 kts | 334° |
| 2026-04-28 18:39 | 51.58002 | 4.81849 | 33 ft | 5 kts | 336° |
| 2026-04-28 18:40 | 51.58069 | 4.81818 | 39 ft | 4 kts | 342° |
| 2026-04-28 18:40 | 51.58081 | 4.81818 | 19 ft | 0 kts | 326° |
| 2026-04-28 18:40 | 51.58067 | 4.81818 | 19 ft | 0 kts | 349° |
| 2026-04-28 18:41 | 51.58054 | 4.81602 | 97 ft | 37 kts | 273° |
| 2026-04-28 18:42 | 51.58054 | 4.81016 | 180 ft | 60 kts | 268° |
| 2026-04-28 18:42 | 51.58039 | 4.80384 | 439 ft | 54 kts | 268° |
| 2026-04-28 18:42 | 51.58015 | 4.79766 | 651 ft | 62 kts | 257° |
| 2026-04-28 18:42 | 51.58098 | 4.79037 | 591 ft | 79 kts | 313° |
| 2026-04-28 18:43 | 51.58638 | 4.79045 | 442 ft | 92 kts | 33° |
| 2026-04-28 18:43 | 51.58768 | 4.80095 | 317 ft | 111 kts | 98° |
| 2026-04-28 18:43 | 51.58153 | 4.80860 | 318 ft | 119 kts | 153° |
| 2026-04-28 18:43 | 51.57355 | 4.80697 | 401 ft | 116 kts | 198° |
| 2026-04-28 18:44 | 51.56835 | 4.79788 | 524 ft | 110 kts | 243° |
| 2026-04-28 18:44 | 51.56899 | 4.77592 | 701 ft | 89 kts | 277° |
| 2026-04-28 18:44 | 51.56940 | 4.76650 | 666 ft | 81 kts | 273° |
| 2026-04-28 18:45 | 51.56955 | 4.75781 | 643 ft | 74 kts | 272° |
| 2026-04-28 18:45 | 51.56955 | 4.74984 | 640 ft | 68 kts | 270° |
| 2026-04-28 18:45 | 51.56944 | 4.74274 | 641 ft | 58 kts | 269° |
| 2026-04-28 18:45 | 51.56935 | 4.73679 | 637 ft | 50 kts | 271° |
| 2026-04-28 18:46 | 51.56917 | 4.72936 | 612 ft | 83 kts | 271° |
| 2026-04-28 18:46 | 51.56883 | 4.71853 | 607 ft | 113 kts | 266° |
| 2026-04-28 18:46 | 51.56822 | 4.70445 | 614 ft | 136 kts | 263° |
| 2026-04-28 18:46 | 51.56731 | 4.68867 | 636 ft | 142 kts | 260° |
| 2026-04-28 18:47 | 51.56618 | 4.67284 | 625 ft | 144 kts | 259° |
| 2026-04-28 18:47 | 51.56492 | 4.65683 | 630 ft | 146 kts | 260° |
| 2026-04-28 18:47 | 51.56354 | 4.64082 | 639 ft | 142 kts | 258° |
| 2026-04-28 18:47 | 51.56210 | 4.62517 | 630 ft | 141 kts | 257° |
| 2026-04-28 18:48 | 51.56063 | 4.60970 | 627 ft | 143 kts | 258° |
| 2026-04-28 18:48 | 51.55942 | 4.59358 | 593 ft | 147 kts | 271° |
| 2026-04-28 18:48 | 51.56076 | 4.57767 | 642 ft | 143 kts | 265° |
| 2026-04-28 18:48 | 51.55817 | 4.56392 | 284 ft | 119 kts | 238° |
| 2026-04-28 18:49 | 51.55543 | 4.55483 | 66 ft | 62 kts | 253° |
| 2026-04-28 18:49 | 51.55493 | 4.55307 | 50 ft | 45 kts | 246° |
| 2026-04-28 18:49 | 51.55450 | 4.55045 | 108 ft | 9 kts | 340° |
| 2026-04-28 18:49 | 51.55479 | 4.55003 | 38 ft | 2 kts | 346° |
| 2026-04-28 18:50 | 51.55485 | 4.54999 | 33 ft | 0 kts | 334° |
| 2026-04-28 18:50 | 51.55426 | 4.54804 | 34 ft | 0 kts | 334° |
| 2026-04-28 18:53 | 51.55421 | 4.54804 | 41 ft | 5 kts | 338° |
| 2026-04-28 18:53 | 51.55404 | 4.54784 | 76 ft | 1 kts | 156° |
| 2026-04-28 18:54 | 51.55390 | 4.54910 | 104 ft | 20 kts | 72° |
| 2026-04-28 18:54 | 51.55492 | 4.55314 | 138 ft | 58 kts | 63° |
| 2026-04-28 18:54 | 51.55728 | 4.56249 | 287 ft | 71 kts | 66° |
| 2026-04-28 18:54 | 51.55812 | 4.56692 | 502 ft | 53 kts | 73° |
| 2026-04-28 18:55 | 51.55874 | 4.57257 | 690 ft | 60 kts | 73° |
| 2026-04-28 18:55 | 51.55957 | 4.58110 | 615 ft | 92 kts | 71° |
| 2026-04-28 18:55 | 51.56048 | 4.59284 | 595 ft | 117 kts | 75° |
| 2026-04-28 18:55 | 51.56102 | 4.60487 | 611 ft | 122 kts | 77° |
| 2026-04-28 18:56 | 51.56119 | 4.61854 | 607 ft | 124 kts | 81° |
| 2026-04-28 18:56 | 51.56095 | 4.63278 | 604 ft | 128 kts | 83° |
| 2026-04-28 18:56 | 51.56027 | 4.64713 | 599 ft | 129 kts | 85° |
| 2026-04-28 18:56 | 51.55913 | 4.66129 | 602 ft | 128 kts | 88° |
| 2026-04-28 18:57 | 51.55753 | 4.67522 | 598 ft | 126 kts | 91° |
| 2026-04-28 18:57 | 51.55548 | 4.68889 | 602 ft | 127 kts | 95° |
| 2026-04-28 18:57 | 51.55296 | 4.70248 | 593 ft | 128 kts | 98° |
| 2026-04-28 18:57 | 51.54988 | 4.71611 | 601 ft | 131 kts | 102° |
| 2026-04-28 18:58 | 51.54627 | 4.72953 | 603 ft | 130 kts | 105° |
| 2026-04-28 18:58 | 51.54305 | 4.74288 | 597 ft | 126 kts | 86° |
| 2026-04-28 18:58 | 51.54629 | 4.75472 | 603 ft | 120 kts | 36° |
| 2026-04-28 18:58 | 51.55374 | 4.76117 | 598 ft | 125 kts | 16° |
| 2026-04-28 18:59 | 51.56240 | 4.76395 | 608 ft | 125 kts | 0° |
| 2026-04-28 18:59 | 51.57037 | 4.76871 | 609 ft | 125 kts | 34° |
| 2026-04-28 18:59 | 51.57414 | 4.78095 | 603 ft | 127 kts | 75° |
| 2026-04-28 18:59 | 51.57161 | 4.79492 | 614 ft | 135 kts | 111° |
| 2026-04-28 19:00 | 51.56712 | 4.80769 | 614 ft | 131 kts | 108° |
| 2026-04-28 19:00 | 51.56356 | 4.82098 | 613 ft | 128 kts | 94° |
| 2026-04-28 19:00 | 51.56328 | 4.83489 | 607 ft | 121 kts | 60° |
| 2026-04-28 19:00 | 51.56948 | 4.83194 | 571 ft | 131 kts | 301° |
| 2026-04-28 19:01 | 51.57101 | 4.81689 | 616 ft | 138 kts | 273° |
| 2026-04-28 19:01 | 51.57297 | 4.80274 | 693 ft | 117 kts | 300° |
| 2026-04-28 19:01 | 51.57953 | 4.80282 | 624 ft | 113 kts | 49° |
| 2026-04-28 19:01 | 51.57837 | 4.81424 | 685 ft | 94 kts | 117° |
| 2026-04-28 19:02 | 51.57521 | 4.81964 | 350 ft | 33 kts | 86° |
| 2026-04-28 19:02 | 51.57546 | 4.82058 | 326 ft | 9 kts | 359° |
| 2026-04-28 19:02 | 51.57792 | 4.81975 | 242 ft | 47 kts | 345° |
| 2026-04-28 19:02 | 51.57992 | 4.81919 | 25 ft | 3 kts | 349° |
| 2026-04-28 19:03 | 51.57986 | 4.81928 | 17 ft | 0 kts | 341° |
| 2026-04-28 19:04 | 51.58014 | 4.81961 | 46 ft | 24 kts | 36° |
| 2026-04-28 19:05 | 51.58129 | 4.82162 | 320 ft | 21 kts | 34° |
| 2026-04-28 19:05 | 51.58268 | 4.82373 | 578 ft | 44 kts | 34° |
| 2026-04-28 19:05 | 51.58629 | 4.82775 | 756 ft | 82 kts | 27° |
| 2026-04-28 19:05 | 51.59194 | 4.83384 | 877 ft | 112 kts | 29° |
| 2026-04-28 19:06 | 51.59881 | 4.84137 | 965 ft | 122 kts | 29° |
| 2026-04-28 19:06 | 51.60343 | 4.84634 | 972 ft | 119 kts | 30° |
| 2026-04-28 19:06 | 51.61261 | 4.85627 | 976 ft | 120 kts | 30° |
| 2026-04-28 19:06 | 51.61955 | 4.86382 | 986 ft | 119 kts | 30° |
| 2026-04-28 19:07 | 51.62634 | 4.87116 | 985 ft | 118 kts | 30° |
| 2026-04-28 19:07 | 51.63322 | 4.87862 | 977 ft | 119 kts | 31° |
| 2026-04-28 19:07 | 51.64016 | 4.88620 | 977 ft | 120 kts | 31° |
| 2026-04-28 19:07 | 51.64698 | 4.89366 | 992 ft | 119 kts | 31° |
| 2026-04-28 19:08 | 51.65383 | 4.90117 | 985 ft | 118 kts | 32° |
| 2026-04-28 19:08 | 51.66060 | 4.90867 | 976 ft | 118 kts | 32° |
| 2026-04-28 19:08 | 51.66743 | 4.91621 | 987 ft | 119 kts | 32° |
| 2026-04-28 19:08 | 51.67421 | 4.92368 | 991 ft | 120 kts | 31° |
| 2026-04-28 19:09 | 51.68116 | 4.93135 | 967 ft | 127 kts | 31° |
| 2026-04-28 19:09 | 51.68857 | 4.93955 | 1001 ft | 127 kts | 31° |
| 2026-04-28 19:09 | 51.69589 | 4.94762 | 990 ft | 128 kts | 31° |
| 2026-04-28 19:09 | 51.70245 | 4.95484 | 999 ft | 128 kts | 31° |
| 2026-04-28 19:10 | 51.70924 | 4.96250 | 967 ft | 127 kts | 31° |
| 2026-04-28 19:10 | 51.71475 | 4.96863 | 972 ft | 126 kts | 32° |
| 2026-04-28 19:10 | 51.72074 | 4.97528 | 1057 ft | 115 kts | 33° |
| 2026-04-28 19:10 | 51.72771 | 4.98305 | 1034 ft | 125 kts | 31° |
| 2026-04-28 19:11 | 51.73498 | 4.99099 | 1019 ft | 127 kts | 31° |
| 2026-04-28 19:11 | 51.74236 | 4.99907 | 1011 ft | 128 kts | 31° |
| 2026-04-28 19:11 | 51.74872 | 5.00604 | 993 ft | 126 kts | 32° |
| 2026-04-28 19:11 | 51.75578 | 5.01388 | 1002 ft | 127 kts | 33° |
| 2026-04-28 19:12 | 51.76308 | 5.02189 | 996 ft | 130 kts | 31° |
| 2026-04-28 19:12 | 51.77053 | 5.03008 | 999 ft | 127 kts | 31° |
| 2026-04-28 19:12 | 51.77757 | 5.03786 | 994 ft | 128 kts | 31° |
| 2026-04-28 19:12 | 51.78510 | 5.04615 | 1000 ft | 127 kts | 31° |
| 2026-04-28 19:13 | 51.79246 | 5.05427 | 1005 ft | 127 kts | 31° |
| 2026-04-28 19:13 | 51.79969 | 5.06224 | 998 ft | 127 kts | 31° |
| 2026-04-28 19:13 | 51.80707 | 5.07039 | 1003 ft | 128 kts | 31° |
| 2026-04-28 19:13 | 51.81429 | 5.07837 | 994 ft | 126 kts | 31° |
| 2026-04-28 19:14 | 51.82159 | 5.08646 | 1010 ft | 126 kts | 31° |
| 2026-04-28 19:14 | 51.82882 | 5.09444 | 997 ft | 128 kts | 31° |
| 2026-04-28 19:14 | 51.83618 | 5.10260 | 1010 ft | 128 kts | 31° |
| 2026-04-28 19:14 | 51.84347 | 5.11068 | 1000 ft | 128 kts | 30° |
| 2026-04-28 19:15 | 51.85089 | 5.11892 | 1000 ft | 129 kts | 30° |
| 2026-04-28 19:15 | 51.85832 | 5.12721 | 1005 ft | 130 kts | 31° |
| 2026-04-28 19:15 | 51.86578 | 5.13548 | 1011 ft | 129 kts | 30° |
| 2026-04-28 19:15 | 51.87072 | 5.14092 | 1008 ft | 128 kts | 30° |
| 2026-04-28 19:16 | 51.88048 | 5.15171 | 1000 ft | 128 kts | 31° |
| 2026-04-28 19:16 | 51.88789 | 5.15993 | 1006 ft | 129 kts | 31° |
| 2026-04-28 19:16 | 51.89510 | 5.16795 | 999 ft | 127 kts | 31° |
| 2026-04-28 19:16 | 51.90235 | 5.17604 | 1003 ft | 129 kts | 31° |
| 2026-04-28 19:17 | 51.90976 | 5.18432 | 1012 ft | 128 kts | 30° |
| 2026-04-28 19:17 | 51.91710 | 5.19249 | 1005 ft | 129 kts | 30° |
| 2026-04-28 19:17 | 51.92451 | 5.20075 | 1005 ft | 129 kts | 31° |
| 2026-04-28 19:17 | 51.93191 | 5.20902 | 1005 ft | 128 kts | 31° |
| 2026-04-28 19:18 | 51.93917 | 5.21713 | 1007 ft | 128 kts | 30° |
| 2026-04-28 19:18 | 51.94665 | 5.22545 | 1005 ft | 131 kts | 31° |
| 2026-04-28 19:18 | 51.95404 | 5.23364 | 1016 ft | 128 kts | 30° |
| 2026-04-28 19:18 | 51.96142 | 5.24183 | 1006 ft | 129 kts | 30° |
| 2026-04-28 19:19 | 51.96880 | 5.25007 | 995 ft | 130 kts | 32° |
| 2026-04-28 19:19 | 51.97632 | 5.25854 | 1008 ft | 131 kts | 31° |
| 2026-04-28 19:19 | 51.98375 | 5.26686 | 1010 ft | 129 kts | 31° |
| 2026-04-28 19:19 | 51.99109 | 5.27506 | 1005 ft | 129 kts | 31° |
| 2026-04-28 19:20 | 51.99853 | 5.28342 | 1004 ft | 129 kts | 31° |
| 2026-04-28 19:20 | 52.00591 | 5.29171 | 1002 ft | 129 kts | 32° |
| 2026-04-28 19:20 | 52.01324 | 5.29994 | 1012 ft | 129 kts | 32° |
| 2026-04-28 19:20 | 52.02064 | 5.30824 | 1014 ft | 128 kts | 31° |
| 2026-04-28 19:21 | 52.02794 | 5.31643 | 1015 ft | 129 kts | 31° |
| 2026-04-28 19:21 | 52.03544 | 5.32482 | 1022 ft | 130 kts | 32° |
| 2026-04-28 19:21 | 52.04286 | 5.33307 | 1019 ft | 128 kts | 32° |
| 2026-04-28 19:21 | 52.05016 | 5.34115 | 1022 ft | 126 kts | 31° |
| 2026-04-28 19:22 | 52.05743 | 5.34932 | 1007 ft | 129 kts | 31° |
| 2026-04-28 19:22 | 52.06233 | 5.35484 | 1011 ft | 130 kts | 31° |
| 2026-04-28 19:22 | 52.07233 | 5.36603 | 1024 ft | 129 kts | 31° |
| 2026-04-28 19:22 | 52.07967 | 5.37429 | 1006 ft | 129 kts | 31° |
| 2026-04-28 19:23 | 52.08700 | 5.38252 | 1020 ft | 129 kts | 31° |
| 2026-04-28 19:23 | 52.09444 | 5.39089 | 1013 ft | 130 kts | 31° |
| 2026-04-28 19:23 | 52.10189 | 5.39929 | 1013 ft | 131 kts | 31° |
| 2026-04-28 19:23 | 52.10927 | 5.40758 | 1020 ft | 128 kts | 31° |
| 2026-04-28 19:24 | 52.11657 | 5.41581 | 1016 ft | 128 kts | 32° |
| 2026-04-28 19:24 | 52.12390 | 5.42407 | 1023 ft | 129 kts | 32° |
| 2026-04-28 19:24 | 52.13138 | 5.43250 | 1015 ft | 132 kts | 31° |
| 2026-04-28 19:24 | 52.13895 | 5.44103 | 1024 ft | 131 kts | 31° |
| 2026-04-28 19:25 | 52.14632 | 5.44932 | 1015 ft | 129 kts | 31° |
| 2026-04-28 19:25 | 52.15371 | 5.45770 | 1021 ft | 129 kts | 31° |
| 2026-04-28 19:25 | 52.16104 | 5.46601 | 1019 ft | 129 kts | 32° |
| 2026-04-28 19:25 | 52.16839 | 5.47435 | 1012 ft | 128 kts | 31° |
| 2026-04-28 19:26 | 52.17568 | 5.48258 | 1027 ft | 128 kts | 31° |
| 2026-04-28 19:26 | 52.18297 | 5.49081 | 1022 ft | 128 kts | 31° |
| 2026-04-28 19:26 | 52.19023 | 5.49903 | 1022 ft | 126 kts | 31° |
| 2026-04-28 19:26 | 52.19741 | 5.50716 | 1028 ft | 128 kts | 30° |
| 2026-04-28 19:27 | 52.20474 | 5.51543 | 1021 ft | 128 kts | 31° |
| 2026-04-28 19:27 | 52.21211 | 5.52379 | 1021 ft | 128 kts | 32° |
| 2026-04-28 19:27 | 52.21930 | 5.53195 | 1021 ft | 127 kts | 32° |
| 2026-04-28 19:27 | 52.22650 | 5.54011 | 1022 ft | 125 kts | 31° |
| 2026-04-28 19:28 | 52.23377 | 5.54836 | 1020 ft | 127 kts | 31° |
| 2026-04-28 19:28 | 52.24096 | 5.55656 | 1027 ft | 127 kts | 32° |
| 2026-04-28 19:28 | 52.24828 | 5.56489 | 1022 ft | 129 kts | 32° |
| 2026-04-28 19:28 | 52.25562 | 5.57322 | 1029 ft | 127 kts | 33° |
| 2026-04-28 19:29 | 52.26281 | 5.58138 | 1021 ft | 128 kts | 33° |
| 2026-04-28 19:29 | 52.26769 | 5.58693 | 1026 ft | 128 kts | 32° |
| 2026-04-28 19:29 | 52.27740 | 5.59790 | 1021 ft | 128 kts | 32° |
| 2026-04-28 19:29 | 52.28475 | 5.60625 | 1045 ft | 128 kts | 32° |
| 2026-04-28 19:30 | 52.29207 | 5.61456 | 1082 ft | 128 kts | 32° |
| 2026-04-28 19:30 | 52.29930 | 5.62272 | 1092 ft | 127 kts | 32° |
| 2026-04-28 19:30 | 52.30654 | 5.63089 | 1093 ft | 126 kts | 33° |
| 2026-04-28 19:30 | 52.31378 | 5.63910 | 1085 ft | 126 kts | 33° |
| 2026-04-28 19:31 | 52.32097 | 5.64733 | 1089 ft | 127 kts | 33° |
| 2026-04-28 19:31 | 52.32817 | 5.65560 | 1091 ft | 128 kts | 33° |
| 2026-04-28 19:31 | 52.33548 | 5.66399 | 1102 ft | 129 kts | 32° |
| 2026-04-28 19:31 | 52.34277 | 5.67227 | 1094 ft | 126 kts | 33° |
| 2026-04-28 19:32 | 52.34996 | 5.68047 | 1099 ft | 126 kts | 33° |
| 2026-04-28 19:32 | 52.35706 | 5.68857 | 1095 ft | 126 kts | 33° |
| 2026-04-28 19:32 | 52.36421 | 5.69672 | 1095 ft | 125 kts | 33° |
| 2026-04-28 19:32 | 52.37136 | 5.70491 | 1098 ft | 125 kts | 33° |
| 2026-04-28 19:33 | 52.37849 | 5.71309 | 1094 ft | 125 kts | 33° |
| 2026-04-28 19:33 | 52.38566 | 5.72133 | 1096 ft | 126 kts | 33° |
| 2026-04-28 19:33 | 52.39278 | 5.72948 | 1095 ft | 125 kts | 33° |
| 2026-04-28 19:33 | 52.39818 | 5.73529 | 354 ft | 26 kts | 326° |
| 2026-04-28 19:34 | 52.39822 | 5.73458 | 144 ft | 6 kts | 56° |
| 2026-04-28 19:34 | 52.39878 | 5.73584 | 138 ft | 24 kts | 43° |
| 2026-04-28 19:34 | 52.40098 | 5.73907 | 380 ft | 62 kts | 39° |
| 2026-04-28 19:34 | 52.40551 | 5.74443 | 618 ft | 96 kts | 36° |
| 2026-04-28 19:35 | 52.41146 | 5.75145 | 868 ft | 114 kts | 35° |
| 2026-04-28 19:35 | 52.41810 | 5.75917 | 1087 ft | 116 kts | 35° |
| 2026-04-28 19:35 | 52.42457 | 5.76651 | 1202 ft | 109 kts | 34° |
| 2026-04-28 19:35 | 52.43053 | 5.77308 | 1233 ft | 98 kts | 34° |
| 2026-04-28 19:36 | 52.43605 | 5.77917 | 1234 ft | 98 kts | 33° |
| 2026-04-28 19:36 | 52.44195 | 5.78580 | 1225 ft | 109 kts | 34° |
| 2026-04-28 19:36 | 52.44847 | 5.79326 | 1236 ft | 121 kts | 33° |
| 2026-04-28 19:36 | 52.45561 | 5.80145 | 1241 ft | 126 kts | 33° |
| 2026-04-28 19:37 | 52.46273 | 5.80960 | 1241 ft | 125 kts | 34° |
| 2026-04-28 19:37 | 52.46506 | 5.81229 | 1247 ft | 124 kts | 34° |
| 2026-04-28 19:37 | 52.47458 | 5.82324 | 1247 ft | 124 kts | 33° |
| 2026-04-28 19:37 | 52.48388 | 5.83389 | 1244 ft | 124 kts | 33° |
| 2026-04-28 19:38 | 52.49096 | 5.84202 | 1248 ft | 124 kts | 33° |
| 2026-04-28 19:38 | 52.49567 | 5.84742 | 1248 ft | 124 kts | 33° |
| 2026-04-28 19:38 | 52.50281 | 5.85566 | 1246 ft | 126 kts | 33° |
| 2026-04-28 19:38 | 52.50994 | 5.86384 | 1249 ft | 126 kts | 33° |
| 2026-04-28 19:39 | 52.51710 | 5.87206 | 1252 ft | 124 kts | 33° |
| 2026-04-28 19:39 | 52.52420 | 5.88024 | 1245 ft | 125 kts | 33° |
| 2026-04-28 19:39 | 52.53131 | 5.88844 | 1246 ft | 126 kts | 34° |
| 2026-04-28 19:39 | 52.53857 | 5.89681 | 1252 ft | 127 kts | 33° |
| 2026-04-28 19:40 | 52.54571 | 5.90506 | 1252 ft | 127 kts | 32° |
| 2026-04-28 19:40 | 52.55296 | 5.91339 | 1255 ft | 124 kts | 33° |
| 2026-04-28 19:40 | 52.55998 | 5.92145 | 1255 ft | 124 kts | 34° |
| 2026-04-28 19:40 | 52.56703 | 5.92953 | 1248 ft | 124 kts | 34° |
| 2026-04-28 19:41 | 52.57420 | 5.93784 | 1247 ft | 128 kts | 34° |
| 2026-04-28 19:41 | 52.58142 | 5.94619 | 1250 ft | 126 kts | 33° |
| 2026-04-28 19:41 | 52.58860 | 5.95448 | 1250 ft | 126 kts | 34° |
| 2026-04-28 19:41 | 52.59565 | 5.96264 | 1251 ft | 124 kts | 34° |
| 2026-04-28 19:42 | 52.60277 | 5.97091 | 1249 ft | 125 kts | 34° |
| 2026-04-28 19:42 | 52.60979 | 5.97906 | 1254 ft | 125 kts | 34° |
| 2026-04-28 19:42 | 52.61692 | 5.98735 | 1245 ft | 125 kts | 34° |
| 2026-04-28 19:42 | 52.62408 | 5.99569 | 1249 ft | 126 kts | 34° |
| 2026-04-28 19:43 | 52.63117 | 6.00394 | 1250 ft | 126 kts | 34° |
| 2026-04-28 19:43 | 52.63836 | 6.01230 | 1259 ft | 127 kts | 33° |
| 2026-04-28 19:43 | 52.64563 | 6.02069 | 1260 ft | 127 kts | 33° |
| 2026-04-28 19:43 | 52.65267 | 6.02880 | 1262 ft | 123 kts | 33° |
| 2026-04-28 19:44 | 52.65966 | 6.03686 | 1251 ft | 124 kts | 33° |
| 2026-04-28 19:44 | 52.66673 | 6.04511 | 1255 ft | 124 kts | 34° |
| 2026-04-28 19:44 | 52.67375 | 6.05327 | 1250 ft | 124 kts | 34° |
| 2026-04-28 19:44 | 52.68094 | 6.06168 | 1259 ft | 127 kts | 33° |
| 2026-04-28 19:45 | 52.68803 | 6.06991 | 1258 ft | 125 kts | 34° |
| 2026-04-28 19:45 | 52.69518 | 6.07828 | 1260 ft | 126 kts | 33° |
| 2026-04-28 19:45 | 52.70224 | 6.08651 | 1261 ft | 124 kts | 34° |
| 2026-04-28 19:45 | 52.70930 | 6.09474 | 1259 ft | 124 kts | 34° |
| 2026-04-28 19:46 | 52.71638 | 6.10300 | 1261 ft | 124 kts | 34° |
| 2026-04-28 19:46 | 52.72344 | 6.11121 | 1259 ft | 124 kts | 34° |
| 2026-04-28 19:46 | 52.73055 | 6.11951 | 1257 ft | 126 kts | 34° |
| 2026-04-28 19:46 | 52.73691 | 6.12694 | 1267 ft | 126 kts | 33° |
| 2026-04-28 19:47 | 52.74402 | 6.13520 | 1263 ft | 126 kts | 33° |
| 2026-04-28 19:47 | 52.75115 | 6.14348 | 1263 ft | 124 kts | 34° |
| 2026-04-28 19:47 | 52.75814 | 6.15159 | 1255 ft | 124 kts | 34° |
| 2026-04-28 19:47 | 52.76517 | 6.15980 | 1259 ft | 124 kts | 34° |
| 2026-04-28 19:48 | 52.77227 | 6.16811 | 1258 ft | 124 kts | 34° |
| 2026-04-28 19:48 | 52.77941 | 6.17648 | 1273 ft | 126 kts | 33° |
| 2026-04-28 19:48 | 52.78649 | 6.18470 | 1268 ft | 124 kts | 33° |
| 2026-04-28 19:48 | 52.79358 | 6.19293 | 1264 ft | 123 kts | 34° |
| 2026-04-28 19:49 | 52.80052 | 6.20105 | 1264 ft | 123 kts | 34° |
| 2026-04-28 19:49 | 52.80756 | 6.20929 | 1264 ft | 124 kts | 34° |
| 2026-04-28 19:49 | 52.81459 | 6.21758 | 1265 ft | 126 kts | 34° |
| 2026-04-28 19:49 | 52.82178 | 6.22604 | 1263 ft | 126 kts | 34° |
| 2026-04-28 19:50 | 52.83591 | 6.24261 | 1272 ft | 123 kts | 34° |
| 2026-04-28 19:50 | 52.84295 | 6.25085 | 1279 ft | 124 kts | 34° |
| 2026-04-28 19:50 | 52.84997 | 6.25911 | 1278 ft | 124 kts | 34° |
| 2026-04-28 19:51 | 52.85692 | 6.26725 | 1280 ft | 123 kts | 34° |
| 2026-04-28 19:51 | 52.86389 | 6.27542 | 1277 ft | 122 kts | 35° |
| 2026-04-28 19:51 | 52.87082 | 6.28357 | 1273 ft | 123 kts | 36° |
| 2026-04-28 19:51 | 52.87788 | 6.29189 | 1283 ft | 123 kts | 36° |
| 2026-04-28 19:52 | 52.88487 | 6.30014 | 1275 ft | 124 kts | 35° |
| 2026-04-28 19:52 | 52.89183 | 6.30835 | 1283 ft | 123 kts | 35° |
| 2026-04-28 19:52 | 52.89879 | 6.31652 | 1282 ft | 123 kts | 34° |
| 2026-04-28 19:52 | 52.90578 | 6.32470 | 1291 ft | 123 kts | 34° |
| 2026-04-28 19:53 | 52.91274 | 6.33284 | 1285 ft | 121 kts | 34° |
| 2026-04-28 19:53 | 52.91965 | 6.34099 | 1276 ft | 123 kts | 36° |
| 2026-04-28 19:53 | 52.92667 | 6.34933 | 1282 ft | 124 kts | 35° |
| 2026-04-28 19:53 | 52.93362 | 6.35755 | 1284 ft | 123 kts | 36° |
| 2026-04-28 19:54 | 52.94060 | 6.36580 | 1294 ft | 122 kts | 34° |
| 2026-04-28 19:54 | 52.94747 | 6.37385 | 1294 ft | 121 kts | 34° |
| 2026-04-28 19:54 | 52.95433 | 6.38191 | 1296 ft | 121 kts | 34° |
| 2026-04-28 19:54 | 52.96121 | 6.39001 | 1292 ft | 120 kts | 34° |
| 2026-04-28 19:55 | 52.96799 | 6.39803 | 1292 ft | 121 kts | 36° |
| 2026-04-28 19:55 | 52.97491 | 6.40626 | 1297 ft | 123 kts | 35° |
| 2026-04-28 19:55 | 52.98187 | 6.41450 | 1298 ft | 122 kts | 35° |
| 2026-04-28 19:55 | 52.98876 | 6.42264 | 1292 ft | 122 kts | 36° |
| 2026-04-28 19:56 | 52.99566 | 6.43082 | 1301 ft | 122 kts | 35° |
| 2026-04-28 19:56 | 53.00253 | 6.43893 | 1303 ft | 120 kts | 36° |
| 2026-04-28 19:56 | 53.00932 | 6.44699 | 1296 ft | 120 kts | 36° |
| 2026-04-28 19:56 | 53.01634 | 6.45437 | 1300 ft | 123 kts | 29° |
| 2026-04-28 19:57 | 53.02402 | 6.46085 | 1299 ft | 123 kts | 27° |
| 2026-04-28 19:57 | 53.03174 | 6.46715 | 1304 ft | 123 kts | 27° |
| 2026-04-28 19:57 | 53.03941 | 6.47335 | 1304 ft | 125 kts | 27° |
| 2026-04-28 19:57 | 53.04729 | 6.47962 | 1308 ft | 124 kts | 27° |
| 2026-04-28 19:58 | 53.05434 | 6.48508 | 1303 ft | 123 kts | 27° |
| 2026-04-28 19:58 | 53.06213 | 6.49108 | 1301 ft | 124 kts | 27° |
| 2026-04-28 19:58 | 53.07000 | 6.49716 | 1307 ft | 123 kts | 27° |
| 2026-04-28 19:58 | 53.07768 | 6.50316 | 1299 ft | 124 kts | 27° |
| 2026-04-28 19:59 | 53.08558 | 6.50947 | 1304 ft | 125 kts | 27° |
| 2026-04-28 19:59 | 53.09333 | 6.51567 | 1307 ft | 124 kts | 27° |
| 2026-04-28 19:59 | 53.10114 | 6.52187 | 1296 ft | 125 kts | 27° |
| 2026-04-28 19:59 | 53.10901 | 6.52810 | 1304 ft | 124 kts | 27° |
| 2026-04-28 20:00 | 53.11675 | 6.53401 | 1302 ft | 121 kts | 27° |
| 2026-04-28 20:00 | 53.12445 | 6.53997 | 1298 ft | 123 kts | 27° |
| 2026-04-28 20:00 | 53.13214 | 6.54593 | 1303 ft | 122 kts | 28° |
| 2026-04-28 20:00 | 53.13997 | 6.55151 | 1297 ft | 123 kts | 27° |
| 2026-04-28 20:01 | 53.14795 | 6.55715 | 1309 ft | 125 kts | 26° |
| 2026-04-28 20:01 | 53.15581 | 6.56278 | 1303 ft | 123 kts | 27° |
| 2026-04-28 20:01 | 53.16407 | 6.56710 | 1299 ft | 126 kts | 19° |
| 2026-04-28 20:01 | 53.17263 | 6.57044 | 1295 ft | 128 kts | 18° |
| 2026-04-28 20:02 | 53.18157 | 6.57339 | 1304 ft | 133 kts | 11° |
| 2026-04-28 20:02 | 53.19097 | 6.57081 | 1310 ft | 143 kts | 349° |
| 2026-04-28 20:02 | 53.20019 | 6.56543 | 1167 ft | 137 kts | 341° |
| 2026-04-28 20:02 | 53.20743 | 6.55617 | 964 ft | 131 kts | 309° |
| 2026-04-28 20:03 | 53.20804 | 6.54231 | 544 ft | 117 kts | 232° |
| 2026-04-28 20:03 | 53.20199 | 6.53784 | 180 ft | 88 kts | 154° |
| 2026-04-28 20:03 | 53.19783 | 6.54082 | 155 ft | 61 kts | 139° |
| 2026-04-28 20:03 | 53.19433 | 6.54382 | 71 ft | 34 kts | 135° |
| 2026-04-28 20:04 | 53.19371 | 6.54435 | 12 ft | 2 kts | 172° |
| 2026-04-28 20:04 | 53.19371 | 6.54434 | 7 ft | 0 kts | 175° |
| 2026-04-28 20:13 | 53.19361 | 6.54438 | 53 ft | 3 kts | 185° |
| 2026-04-28 20:13 | 53.19352 | 6.54434 | 27 ft | 0 kts | 185° |
| 2026-04-28 20:13 | 53.19356 | 6.54415 | 257 ft | 4 kts | 168° |
| 2026-04-28 20:14 | 53.19330 | 6.54374 | 602 ft | 14 kts | 163° |
| 2026-04-28 20:14 | 53.19039 | 6.54180 | 756 ft | 60 kts | 191° |
| 2026-04-28 20:14 | 53.18749 | 6.53871 | 1118 ft | 46 kts | 173° |
| 2026-04-28 20:14 | 53.18477 | 6.53597 | 1080 ft | 57 kts | 180° |
| 2026-04-28 20:15 | 53.18023 | 6.53040 | 1049 ft | 101 kts | 201° |
| 2026-04-28 20:15 | 53.17411 | 6.52160 | 1015 ft | 130 kts | 207° |
| 2026-04-28 20:15 | 53.16683 | 6.51067 | 1016 ft | 152 kts | 210° |
| 2026-04-28 20:15 | 53.15869 | 6.49828 | 1016 ft | 163 kts | 210° |
| 2026-04-28 20:16 | 53.15031 | 6.48563 | 1030 ft | 167 kts | 210° |
| 2026-04-28 20:16 | 53.14733 | 6.48116 | 1030 ft | 167 kts | 210° |
| 2026-04-28 20:16 | 53.13764 | 6.46686 | 1029 ft | 169 kts | 210° |
| 2026-04-28 20:16 | 53.12878 | 6.45395 | 1033 ft | 169 kts | 210° |
| 2026-04-28 20:17 | 53.11989 | 6.44108 | 1032 ft | 169 kts | 209° |
| 2026-04-28 20:17 | 53.11107 | 6.42844 | 1035 ft | 169 kts | 208° |
| 2026-04-28 20:17 | 53.10217 | 6.41575 | 1029 ft | 168 kts | 208° |
| 2026-04-28 20:17 | 53.09326 | 6.40308 | 1029 ft | 168 kts | 208° |
| 2026-04-28 20:18 | 53.08434 | 6.39040 | 1032 ft | 168 kts | 209° |
| 2026-04-28 20:18 | 53.07842 | 6.38199 | 1032 ft | 169 kts | 209° |
| 2026-04-28 20:18 | 53.06668 | 6.36534 | 1034 ft | 165 kts | 208° |
| 2026-04-28 20:18 | 53.05787 | 6.35288 | 1021 ft | 167 kts | 208° |
| 2026-04-28 20:19 | 53.04897 | 6.34027 | 1030 ft | 167 kts | 208° |
| 2026-04-28 20:19 | 53.04007 | 6.32765 | 1022 ft | 170 kts | 209° |
| 2026-04-28 20:19 | 53.03406 | 6.31914 | 1029 ft | 169 kts | 209° |
| 2026-04-28 20:19 | 53.02219 | 6.30238 | 1029 ft | 168 kts | 209° |
| 2026-04-28 20:20 | 53.01629 | 6.29407 | 1029 ft | 167 kts | 207° |
| 2026-04-28 20:20 | 53.00852 | 6.28312 | 1021 ft | 166 kts | 207° |
| 2026-04-28 20:20 | 52.99962 | 6.27054 | 1015 ft | 168 kts | 208° |
| 2026-04-28 20:20 | 52.99071 | 6.25792 | 1021 ft | 168 kts | 208° |
| 2026-04-28 20:21 | 52.98178 | 6.24532 | 1020 ft | 170 kts | 208° |
| 2026-04-28 20:21 | 52.97275 | 6.23259 | 1021 ft | 170 kts | 208° |
| 2026-04-28 20:21 | 52.96366 | 6.21978 | 1018 ft | 171 kts | 208° |
| 2026-04-28 20:21 | 52.95472 | 6.20717 | 1018 ft | 170 kts | 208° |
| 2026-04-28 20:22 | 52.94564 | 6.19437 | 1015 ft | 170 kts | 208° |
| 2026-04-28 20:22 | 52.93657 | 6.18162 | 1013 ft | 172 kts | 209° |
| 2026-04-28 20:22 | 52.92757 | 6.16895 | 1017 ft | 170 kts | 208° |
| 2026-04-28 20:22 | 52.91855 | 6.15627 | 1007 ft | 171 kts | 208° |
| 2026-04-28 20:23 | 52.90936 | 6.14338 | 1015 ft | 173 kts | 208° |
| 2026-04-28 20:23 | 52.90032 | 6.13072 | 1000 ft | 172 kts | 208° |
| 2026-04-28 20:23 | 52.89110 | 6.11780 | 1012 ft | 173 kts | 209° |
| 2026-04-28 20:23 | 52.88205 | 6.10510 | 1007 ft | 168 kts | 207° |
| 2026-04-28 20:24 | 52.87313 | 6.09262 | 1005 ft | 170 kts | 207° |
| 2026-04-28 20:24 | 52.86410 | 6.07998 | 1007 ft | 170 kts | 207° |
| 2026-04-28 20:24 | 52.85487 | 6.06709 | 1007 ft | 174 kts | 208° |
| 2026-04-28 20:24 | 52.84576 | 6.05436 | 1008 ft | 171 kts | 209° |
| 2026-04-28 20:25 | 52.83663 | 6.04161 | 1010 ft | 172 kts | 210° |
| 2026-04-28 20:25 | 52.82759 | 6.02899 | 1004 ft | 168 kts | 208° |
| 2026-04-28 20:25 | 52.81861 | 6.01647 | 1002 ft | 170 kts | 207° |
| 2026-04-28 20:25 | 52.80943 | 6.00372 | 1000 ft | 171 kts | 207° |
| 2026-04-28 20:26 | 52.80044 | 5.99116 | 996 ft | 172 kts | 209° |
| 2026-04-28 20:26 | 52.79126 | 5.97828 | 1001 ft | 172 kts | 208° |
| 2026-04-28 20:26 | 52.78219 | 5.96562 | 1005 ft | 169 kts | 208° |
| 2026-04-28 20:26 | 52.77352 | 5.95356 | 1003 ft | 171 kts | 208° |
| 2026-04-28 20:27 | 52.76469 | 5.94130 | 1001 ft | 168 kts | 208° |
| 2026-04-28 20:27 | 52.75554 | 5.92857 | 1002 ft | 173 kts | 208° |
| 2026-04-28 20:27 | 52.74639 | 5.91584 | 1000 ft | 170 kts | 208° |
| 2026-04-28 20:27 | 52.73726 | 5.90317 | 993 ft | 173 kts | 208° |
| 2026-04-28 20:28 | 52.72813 | 5.89050 | 999 ft | 169 kts | 207° |
| 2026-04-28 20:28 | 52.71921 | 5.87811 | 993 ft | 171 kts | 206° |
| 2026-04-28 20:28 | 52.71017 | 5.86560 | 996 ft | 169 kts | 207° |
| 2026-04-28 20:28 | 52.70114 | 5.85311 | 984 ft | 172 kts | 207° |
| 2026-04-28 20:29 | 52.69192 | 5.84035 | 991 ft | 173 kts | 208° |
| 2026-04-28 20:29 | 52.68280 | 5.82772 | 992 ft | 171 kts | 208° |
| 2026-04-28 20:29 | 52.67368 | 5.81513 | 989 ft | 169 kts | 207° |
| 2026-04-28 20:29 | 52.66464 | 5.80264 | 984 ft | 169 kts | 208° |
| 2026-04-28 20:30 | 52.65560 | 5.79018 | 986 ft | 168 kts | 208° |
| 2026-04-28 20:30 | 52.64678 | 5.77797 | 985 ft | 167 kts | 208° |
| 2026-04-28 20:30 | 52.63785 | 5.76559 | 986 ft | 165 kts | 208° |
| 2026-04-28 20:30 | 52.62908 | 5.75345 | 991 ft | 167 kts | 207° |
| 2026-04-28 20:31 | 52.62007 | 5.74102 | 998 ft | 170 kts | 207° |
| 2026-04-28 20:31 | 52.61100 | 5.72854 | 1002 ft | 169 kts | 207° |
| 2026-04-28 20:31 | 52.60196 | 5.71613 | 1001 ft | 168 kts | 207° |
| 2026-04-28 20:31 | 52.59324 | 5.70413 | 995 ft | 163 kts | 208° |
| 2026-04-28 20:32 | 52.58446 | 5.69200 | 995 ft | 167 kts | 207° |
| 2026-04-28 20:32 | 52.57550 | 5.67966 | 1004 ft | 168 kts | 207° |
| 2026-04-28 20:32 | 52.56648 | 5.66725 | 997 ft | 171 kts | 208° |
| 2026-04-28 20:32 | 52.56257 | 5.66187 | 999 ft | 171 kts | 208° |
| 2026-04-28 20:33 | 52.55363 | 5.64949 | 1000 ft | 168 kts | 208° |
| 2026-04-28 20:33 | 52.54458 | 5.63707 | 1001 ft | 168 kts | 207° |
| 2026-04-28 20:33 | 52.53567 | 5.62489 | 1004 ft | 166 kts | 207° |
| 2026-04-28 20:33 | 52.52683 | 5.61279 | 995 ft | 168 kts | 207° |
| 2026-04-28 20:34 | 52.51787 | 5.60085 | 1003 ft | 167 kts | 204° |
| 2026-04-28 20:34 | 52.50810 | 5.59036 | 1006 ft | 166 kts | 196° |
| 2026-04-28 20:34 | 52.49836 | 5.58008 | 1008 ft | 168 kts | 202° |
| 2026-04-28 20:34 | 52.48894 | 5.56868 | 1007 ft | 167 kts | 206° |
| 2026-04-28 20:35 | 52.48003 | 5.55631 | 913 ft | 165 kts | 211° |
| 2026-04-28 20:35 | 52.47200 | 5.54426 | 582 ft | 154 kts | 213° |
| 2026-04-28 20:35 | 52.46425 | 5.53301 | 261 ft | 144 kts | 216° |
| 2026-04-28 20:35 | 52.45757 | 5.52232 | 61 ft | 108 kts | 224° |
| 2026-04-28 20:36 | 52.45505 | 5.51752 | 5 ft | 13 kts | 201° |
| 2026-04-28 20:36 | 52.45413 | 5.51907 | 19 ft | 15 kts | 143° |
| 2026-04-28 20:36 | 52.45338 | 5.51866 | 8 ft | 7 kts | 184° |
| 2026-04-28 20:36 | 52.45305 | 5.51903 | 6 ft | 3 kts | 54° |
| 2026-04-28 20:37 | 52.45308 | 5.51913 | -7 ft | 0 kts | 54° |